Time;durP1;ratioP1;P1;durP2;ratioP2;P2;SDS_P1;SDS_P2;PMS_P1;PMS_P2;Temp;Humidity;BMP_temperature;BMP_pressure;BME280_temperature;BME280_humidity;BME280_pressure;Samples;Min_cycle;Max_cycle;Signal;HPM_P1;HPM_P2
2023/02/22 00:00:51;;;;;;;;;;;;;;;26.08;37.39;94069.91;5043766;28;7364;-63
2023/02/22 00:03:54;;;;;;;;;;;;;;;26.08;37.09;94069.91;5038203;28;7045;-63
2023/02/22 00:06:25;;;;;;;;;;;;;;;26.07;37.44;94073.91;5027534;28;9060;-63
2023/02/22 00:09:01;;;;;;;;;;;;;;;26.06;37.41;94072.41;5028833;28;8677;-62
2023/02/22 00:11:57;;;;;;;;;;;;;;;26.06;37.10;94068.91;5030646;28;7316;-64
2023/02/22 00:14:39;;;;;;;;;;;;;;;26.04;37.11;94071.44;4939865;28;8725;-63
2023/02/22 00:17:23;;;;;;;;;;;;;;;26.03;37.48;94070.69;4956026;28;8667;-63
2023/02/22 00:20:23;;;;;;;;;;;;;;;26.03;36.78;94072.72;4956137;28;7279;-63
2023/02/22 00:23:19;;;;;;;;;;;;;;;26.03;36.78;94075.47;4911019;29;9033;-63
2023/02/22 00:26:08;;;;;;;;;;;;;;;26.00;37.21;94074.50;4908983;29;6986;-63
2023/02/22 00:28:48;;;;;;;;;;;;;;;26.01;37.43;94069.75;4908823;29;8744;-63
2023/02/22 00:31:25;;;;;;;;;;;;;;;25.96;36.84;94068.56;4902329;29;7057;-63
2023/02/22 00:33:52;;;;;;;;;;;;;;;25.98;37.23;94060.50;4915427;29;7359;-63
2023/02/22 00:36:28;;;;;;;;;;;;;;;25.99;36.60;94070.25;4925164;29;9065;-63
2023/02/22 00:39:06;;;;;;;;;;;;;;;25.99;37.33;94064.03;4911922;29;7398;-63
2023/02/22 00:41:57;;;;;;;;;;;;;;;26.00;37.05;94057.22;4915647;29;7032;-62
2023/02/22 00:44:44;;;;;;;;;;;;;;;25.97;37.62;94059.00;4903174;29;9015;-63
2023/02/22 00:47:22;;;;;;;;;;;;;;;25.96;36.78;94056.78;4917468;29;6927;-62
2023/02/22 00:50:04;;;;;;;;;;;;;;;25.93;37.19;94053.06;4907709;28;7054;-63
2023/02/22 00:52:41;;;;;;;;;;;;;;;25.93;36.99;94057.81;4991801;28;7058;-63
2023/02/22 00:55:27;;;;;;;;;;;;;;;25.94;37.31;94051.03;4977539;28;8727;-62
2023/02/22 00:58:05;;;;;;;;;;;;;;;25.93;37.35;94061.31;4973909;28;7437;-62
2023/02/22 01:00:37;;;;;;;;;;;;;;;25.95;36.89;94053.28;5037007;28;8618;-62
2023/02/22 01:03:06;;;;;;;;;;;;;;;25.91;36.92;94046.56;5032111;28;7057;-63
2023/02/22 01:05:41;;;;;;;;;;;;;;;25.91;37.32;94054.84;5036935;28;9700;-63
2023/02/22 01:08:15;;;;;;;;;;;;;;;25.94;36.70;94048.28;5036882;28;7261;-62
2023/02/22 01:10:45;;;;;;;;;;;;;;;25.89;37.13;94047.09;5037130;28;9051;-62
2023/02/22 01:13:21;;;;;;;;;;;;;;;25.92;37.23;94045.31;5027673;28;7329;-62
2023/02/22 01:16:07;;;;;;;;;;;;;;;25.90;37.30;94045.81;5053222;28;9056;-63
2023/02/22 01:19:00;;;;;;;;;;;;;;;25.90;36.79;94043.06;5035131;28;9359;-63
2023/02/22 01:21:28;;;;;;;;;;;;;;;25.88;36.84;94042.13;5049104;28;7502;-63
2023/02/22 01:24:02;;;;;;;;;;;;;;;25.86;37.49;94039.13;5054286;28;8102;-62
2023/02/22 01:26:34;;;;;;;;;;;;;;;25.87;37.28;94038.59;5036516;28;7562;-63
2023/02/22 01:29:35;;;;;;;;;;;;;;;25.88;37.37;94037.31;5037553;28;9059;-62
2023/02/22 01:32:15;;;;;;;;;;;;;;;25.88;37.30;94051.09;4976960;28;7601;-63
2023/02/22 01:38:25;;;;;;;;;;;;;;;25.87;37.26;94041.38;4992949;28;7295;-62
2023/02/22 01:41:07;;;;;;;;;;;;;;;25.87;37.45;94037.84;4980579;28;9359;-62
2023/02/22 01:43:34;;;;;;;;;;;;;;;25.80;36.83;94030.94;4991418;28;9147;-63
2023/02/22 01:46:20;;;;;;;;;;;;;;;25.84;37.19;94036.88;4984630;28;9107;-63
2023/02/22 01:49:04;;;;;;;;;;;;;;;25.82;36.96;94024.88;4966884;28;9361;-63
2023/02/22 01:51:43;;;;;;;;;;;;;;;25.83;37.56;94023.63;4990077;28;7246;-63
2023/02/22 01:54:42;;;;;;;;;;;;;;;25.82;37.25;94028.41;4976779;28;7175;-63
2023/02/22 01:57:31;;;;;;;;;;;;;;;25.82;37.61;94020.13;4977017;28;7029;-63
2023/02/22 02:00:15;;;;;;;;;;;;;;;25.79;37.45;94012.94;4983312;28;7247;-63
2023/02/22 02:02:52;;;;;;;;;;;;;;;25.81;36.94;94012.41;4967104;28;8833;-63
2023/02/22 02:05:23;;;;;;;;;;;;;;;25.83;37.08;94013.38;5003554;28;9659;-63
2023/02/22 02:08:13;;;;;;;;;;;;;;;25.82;36.65;94022.13;5035967;28;7356;-63
2023/02/22 02:10:58;;;;;;;;;;;;;;;25.82;37.71;94022.88;5036642;28;7269;-63
2023/02/22 02:13:27;;;;;;;;;;;;;;;25.80;36.63;94017.16;5053187;28;8748;-63
2023/02/22 02:16:07;;;;;;;;;;;;;;;25.80;36.91;94021.91;5034745;28;7404;-63
2023/02/22 02:18:54;;;;;;;;;;;;;;;25.79;37.09;94020.44;5036112;28;7003;-63
2023/02/22 02:22:05;;;;;;;;;;;;;;;25.78;37.45;94016.94;5035568;28;7254;-62
2023/02/22 02:28:58;;;;;;;;;;;;;;;25.79;37.29;94012.94;5033481;28;9092;-62
2023/02/22 02:31:55;;;;;;;;;;;;;;;25.78;36.78;94007.91;5007031;28;7258;-62
2023/02/22 02:34:35;;;;;;;;;;;;;;;25.76;37.52;94005.69;5044322;28;7593;-62
2023/02/22 02:37:16;;;;;;;;;;;;;;;25.76;36.87;94002.19;5014541;28;8230;-63
2023/02/22 02:40:17;;;;;;;;;;;;;;;25.74;37.74;94002.72;5008007;28;9094;-62
2023/02/22 02:42:59;;;;;;;;;;;;;;;25.71;36.83;93998.25;4993336;28;9125;-63
2023/02/22 02:45:48;;;;;;;;;;;;;;;25.69;37.46;93995.25;4981583;28;8948;-62
2023/02/22 02:48:47;;;;;;;;;;;;;;;25.73;36.69;93994.97;5001341;28;9436;-62
2023/02/22 02:51:35;;;;;;;;;;;;;;;25.74;37.64;93988.94;4955689;28;7199;-62
2023/02/22 02:54:03;;;;;;;;;;;;;;;25.76;37.51;93991.16;4970989;28;7355;-62
2023/02/22 02:56:44;;;;;;;;;;;;;;;25.76;37.02;93994.66;4957061;28;8988;-63
2023/02/22 02:59:28;;;;;;;;;;;;;;;25.74;37.61;93996.44;4947267;28;7995;-62
2023/02/22 03:02:01;;;;;;;;;;;;;;;25.73;36.62;93984.69;4942842;28;7130;-62
2023/02/22 03:04:54;;;;;;;;;;;;;;;25.72;36.87;93982.47;4960842;28;7273;-63
2023/02/22 03:07:32;;;;;;;;;;;;;;;25.69;36.63;93980.75;4955078;28;7109;-63
2023/02/22 03:10:18;;;;;;;;;;;;;;;25.70;36.66;93977.47;4939539;29;9223;-63
2023/02/22 03:13:39;;;;;;;;;;;;;;;25.70;37.53;93974.72;4968409;28;7117;-63
2023/02/22 03:16:34;;;;;;;;;;;;;;;25.68;36.68;93982.78;4902257;29;9363;-62
2023/02/22 03:19:03;;;;;;;;;;;;;;;25.69;37.03;93964.22;4925034;29;7336;-63
2023/02/22 03:25:54;;;;;;;;;;;;;;;25.68;37.58;93966.25;4927857;29;8728;-62
2023/02/22 03:28:49;;;;;;;;;;;;;;;25.68;37.48;93969.00;4935451;29;10360;-63
2023/02/22 03:31:39;;;;;;;;;;;;;;;25.66;36.76;93963.28;4922145;29;9173;-62
2023/02/22 03:34:51;;;;;;;;;;;;;;;25.66;37.38;93963.28;4921897;29;9061;-63
2023/02/22 03:37:37;;;;;;;;;;;;;;;25.66;36.77;93965.28;4899602;29;7045;-63
2023/02/22 03:40:51;;;;;;;;;;;;;;;25.65;36.67;93967.28;4918345;29;9273;-63
2023/02/22 03:43:30;;;;;;;;;;;;;;;25.64;37.32;93960.28;4827977;29;8902;-63
2023/02/22 03:46:02;;;;;;;;;;;;;;;25.64;36.72;93967.81;4827870;29;7379;-63
2023/02/22 03:52:31;;;;;;;;;;;;;;;25.64;36.76;93965.81;4838283;29;9003;-62
2023/02/22 03:55:24;;;;;;;;;;;;;;;25.65;36.78;93969.28;4825133;29;9349;-63
2023/02/22 03:58:08;;;;;;;;;;;;;;;25.65;37.62;93961.75;4824642;29;8539;-63
2023/02/22 04:00:35;;;;;;;;;;;;;;;25.64;37.34;93963.03;4816993;29;9301;-63
2023/02/22 04:03:10;;;;;;;;;;;;;;;25.64;37.54;93965.06;4825596;29;8858;-62
2023/02/22 04:05:49;;;;;;;;;;;;;;;25.62;37.50;93967.59;4831185;29;7143;-63
2023/02/22 04:08:16;;;;;;;;;;;;;;;25.62;37.91;93968.31;4825068;29;8559;-63
2023/02/22 04:11:03;;;;;;;;;;;;;;;25.62;36.76;93967.59;4824980;29;7219;-62
2023/02/22 04:13:30;;;;;;;;;;;;;;;25.62;37.94;93968.31;4818461;29;7012;-62
2023/02/22 04:16:17;;;;;;;;;;;;;;;25.59;37.44;93963.09;4860721;29;9750;-62
2023/02/22 04:18:45;;;;;;;;;;;;;;;25.60;36.89;93956.34;4861308;29;9059;-62
2023/02/22 04:21:23;;;;;;;;;;;;;;;25.62;37.17;93959.31;4951796;28;8715;-62
2023/02/22 04:24:08;;;;;;;;;;;;;;;25.62;37.72;93962.78;4939632;28;7034;-62
2023/02/22 04:26:34;;;;;;;;;;;;;;;25.62;37.47;93957.28;4956091;28;7257;-62
2023/02/22 04:29:03;;;;;;;;;;;;;;;25.62;37.26;93959.31;5000746;28;7228;-63
2023/02/22 04:31:35;;;;;;;;;;;;;;;25.63;36.99;93963.53;5056184;28;6992;-62
2023/02/22 04:34:06;;;;;;;;;;;;;;;25.61;37.11;93961.31;5038191;28;9015;-63
2023/02/22 04:36:52;;;;;;;;;;;;;;;25.59;37.13;93961.09;5037628;28;7036;-62
2023/02/22 04:39:19;;;;;;;;;;;;;;;25.60;37.38;93956.34;5037755;28;8678;-62
2023/02/22 04:42:16;;;;;;;;;;;;;;;25.58;36.88;93959.59;5037789;28;9068;-63
2023/02/22 04:45:40;;;;;;;;;;;;;;;25.60;36.90;93959.81;4990575;28;9141;-62
2023/02/22 04:48:20;;;;;;;;;;;;;;;25.56;36.86;93964.88;4992611;28;7299;-63
2023/02/22 04:50:59;;;;;;;;;;;;;;;25.62;36.97;93971.06;4978094;28;8679;-62
2023/02/22 04:53:44;;;;;;;;;;;;;;;25.63;36.92;93960.78;4970425;28;9003;-62
2023/02/22 04:56:34;;;;;;;;;;;;;;;25.62;37.76;93959.31;4977828;28;9047;-63
2023/02/22 04:59:01;;;;;;;;;;;;;;;25.62;37.75;93960.03;4977712;28;7253;-62
2023/02/22 05:01:32;;;;;;;;;;;;;;;25.62;36.79;93962.06;4977339;28;7167;-63
2023/02/22 05:04:08;;;;;;;;;;;;;;;25.61;37.64;93966.84;4977520;28;9147;-62
2023/02/22 05:06:44;;;;;;;;;;;;;;;25.59;37.58;93957.59;4969639;28;7361;-62
2023/02/22 05:09:19;;;;;;;;;;;;;;;25.61;37.59;93960.56;4977778;28;7036;-62
2023/02/22 05:12:33;;;;;;;;;;;;;;;25.60;37.37;93954.31;4979817;28;8923;-63
2023/02/22 05:15:09;;;;;;;;;;;;;;;25.60;37.49;93959.09;4984753;28;9185;-63
2023/02/22 05:18:28;;;;;;;;;;;;;;;25.61;37.75;93966.84;4993311;28;7268;-63
2023/02/22 05:20:54;;;;;;;;;;;;;;;25.60;37.24;93959.81;4907072;28;7206;-63
2023/02/22 05:23:20;;;;;;;;;;;;;;;25.60;37.16;93959.09;4945896;28;8692;-62
2023/02/22 05:25:46;;;;;;;;;;;;;;;25.58;37.16;93962.34;4934537;28;7542;-63
2023/02/22 05:28:14;;;;;;;;;;;;;;;25.58;37.11;93956.84;4944638;28;7044;-63
2023/02/22 05:30:44;;;;;;;;;;;;;;;25.60;37.65;93957.06;4945016;28;7287;-63
2023/02/22 05:33:27;;;;;;;;;;;;;;;25.60;37.37;93954.31;4936626;28;7265;-63
2023/02/22 05:36:09;;;;;;;;;;;;;;;25.58;37.37;93956.84;4940180;28;9082;-63
2023/02/22 05:38:42;;;;;;;;;;;;;;;25.56;37.35;93951.13;4945963;28;7410;-63
2023/02/22 05:41:10;;;;;;;;;;;;;;;25.60;37.11;93953.59;4946888;28;9595;-63
2023/02/22 05:43:37;;;;;;;;;;;;;;;25.59;37.45;93943.81;4923366;29;9090;-64
2023/02/22 05:46:05;;;;;;;;;;;;;;;25.57;37.70;93952.63;4923847;28;7116;-62
2023/02/22 05:48:42;;;;;;;;;;;;;;;25.58;37.72;93951.34;4937628;28;7128;-63
2023/02/22 05:51:23;;;;;;;;;;;;;;;25.58;37.73;93953.38;4936018;28;9059;-63
2023/02/22 05:54:10;;;;;;;;;;;;;;;25.58;37.73;93951.34;4928308;28;7240;-62
2023/02/22 05:56:49;;;;;;;;;;;;;;;25.57;36.90;93955.38;4967828;28;7380;-62
2023/02/22 05:59:15;;;;;;;;;;;;;;;25.53;36.67;93943.91;5036676;28;7133;-63
2023/02/22 06:01:41;;;;;;;;;;;;;;;25.59;36.86;93946.59;5035978;28;7022;-62
2023/02/22 06:04:28;;;;;;;;;;;;;;;25.63;36.75;93952.53;5035832;28;7413;-63
2023/02/22 06:06:54;;;;;;;;;;;;;;;25.61;37.42;93950.31;5052775;28;8652;-62
2023/02/22 06:09:34;;;;;;;;;;;;;;;25.62;37.13;93946.28;5034192;28;7107;-63
2023/02/22 06:12:10;;;;;;;;;;;;;;;25.61;36.81;93955.06;5032173;28;7276;-62
2023/02/22 06:14:48;;;;;;;;;;;;;;;25.60;36.71;93951.56;5052432;28;9106;-62
2023/02/22 06:17:22;;;;;;;;;;;;;;;25.61;37.53;93947.56;5044152;28;7284;-62
2023/02/22 06:20:12;;;;;;;;;;;;;;;25.60;37.14;93954.31;5043560;28;7478;-62
2023/02/22 06:22:41;;;;;;;;;;;;;;;25.61;37.10;93955.06;5032117;28;7292;-62
2023/02/22 06:25:09;;;;;;;;;;;;;;;25.59;36.78;93950.09;5050349;28;7038;-62
2023/02/22 06:27:51;;;;;;;;;;;;;;;25.59;37.72;93950.09;5036797;28;8735;-63
2023/02/22 06:30:29;;;;;;;;;;;;;;;25.59;36.90;93949.34;5044042;28;9194;-63
2023/02/22 06:32:57;;;;;;;;;;;;;;;25.58;36.81;93953.38;5033371;28;7040;-63
2023/02/22 06:35:33;;;;;;;;;;;;;;;25.58;36.94;93956.84;5035215;28;9037;-63
2023/02/22 06:38:38;;;;;;;;;;;;;;;25.59;37.65;93952.09;5035341;28;9147;-62
2023/02/22 06:41:24;;;;;;;;;;;;;;;25.57;37.35;93960.88;5036086;28;8936;-62
2023/02/22 06:44:01;;;;;;;;;;;;;;;25.54;37.37;93959.16;5035780;28;7023;-65
2023/02/22 06:46:37;;;;;;;;;;;;;;;25.54;37.29;93963.91;5034963;28;7469;-62
2023/02/22 06:49:12;;;;;;;;;;;;;;;25.54;36.96;93967.41;5027884;28;7279;-62
2023/02/22 06:51:57;;;;;;;;;;;;;;;25.52;36.90;93963.69;5030518;28;9411;-62
2023/02/22 06:54:42;;;;;;;;;;;;;;;25.52;37.28;93969.19;5032488;28;8963;-62
2023/02/22 06:57:46;;;;;;;;;;;;;;;25.51;37.92;93968.47;5032205;28;7393;-63
2023/02/22 07:00:42;;;;;;;;;;;;;;;25.50;37.95;93977.25;5027377;28;10324;-62
2023/02/22 07:03:39;;;;;;;;;;;;;;;25.51;36.92;93967.72;4971784;28;7320;-63
2023/02/22 07:06:23;;;;;;;;;;;;;;;25.50;37.24;93968.97;4896302;29;9468;-63
2023/02/22 07:09:01;;;;;;;;;;;;;;;25.49;37.52;93968.22;4880254;29;9436;-63
2023/02/22 07:11:37;;;;;;;;;;;;;;;25.48;37.60;93971.50;4880878;29;7049;-63
2023/02/22 07:14:47;;;;;;;;;;;;;;;25.49;37.91;93970.97;4880893;29;9163;-63
2023/02/22 07:17:52;;;;;;;;;;;;;;;25.49;37.48;93973.72;4896327;29;7938;-63
2023/02/22 07:20:57;;;;;;;;;;;;;;;25.49;37.17;93968.22;4895308;29;9197;-62
2023/02/22 07:23:58;;;;;;;;;;;;;;;25.48;37.34;93974.25;4880324;29;7395;-62
2023/02/22 07:26:39;;;;;;;;;;;;;;;25.47;38.06;93973.50;4810209;29;8704;-62
2023/02/22 07:29:45;;;;;;;;;;;;;;;25.46;37.48;93972.03;4809993;29;7079;-62
2023/02/22 07:32:13;;;;;;;;;;;;;;;25.48;36.89;93974.25;4785737;29;7257;-62
2023/02/22 07:34:41;;;;;;;;;;;;;;;25.49;37.96;93970.25;4785466;29;9018;-62
2023/02/22 07:37:26;;;;;;;;;;;;;;;25.50;36.85;93968.97;4784957;29;9308;-62
2023/02/22 07:39:52;;;;;;;;;;;;;;;25.49;37.88;93970.25;4828297;29;7292;-62
2023/02/22 07:42:18;;;;;;;;;;;;;;;25.48;37.00;93966.00;4857683;29;7002;-62
2023/02/22 07:45:00;;;;;;;;;;;;;;;25.48;37.73;93968.75;4876396;29;9086;-62
2023/02/22 07:47:55;;;;;;;;;;;;;;;25.47;37.26;93965.25;4868798;29;9131;-62
2023/02/22 07:50:41;;;;;;;;;;;;;;;25.49;38.14;93967.50;4877105;29;7122;-62
2023/02/22 07:53:13;;;;;;;;;;;;;;;25.49;37.65;93962.72;4867046;29;9406;-62
2023/02/22 07:55:39;;;;;;;;;;;;;;;25.49;37.68;93959.25;4864182;29;8931;-62
2023/02/22 07:58:09;;;;;;;;;;;;;;;25.49;38.02;93962.72;4875357;29;9401;-62
2023/02/22 08:00:38;;;;;;;;;;;;;;;25.51;37.87;93962.22;4868297;29;9032;-62
2023/02/22 08:03:07;;;;;;;;;;;;;;;25.50;37.34;93961.47;4922867;29;7037;-62
2023/02/22 08:05:38;;;;;;;;;;;;;;;25.50;37.72;93963.47;4949157;28;7932;-62
2023/02/22 08:08:07;;;;;;;;;;;;;;;25.50;37.79;93966.97;4991486;28;9249;-62
2023/02/22 08:10:36;;;;;;;;;;;;;;;25.49;37.97;93957.22;4982994;28;9328;-62
2023/02/22 08:13:04;;;;;;;;;;;;;;;25.49;37.47;93967.50;4993204;28;9076;-62
2023/02/22 08:15:33;;;;;;;;;;;;;;;25.53;37.06;93968.69;4994623;28;8235;-62
2023/02/22 08:18:03;;;;;;;;;;;;;;;25.51;37.97;93962.22;4993879;28;9368;-63
2023/02/22 08:20:32;;;;;;;;;;;;;;;25.52;37.70;93964.44;4996190;28;7261;-62
2023/02/22 08:23:14;;;;;;;;;;;;;;;25.53;37.52;93965.94;4994562;28;9347;-62
2023/02/22 08:26:19;;;;;;;;;;;;;;;25.54;37.96;93967.41;4998806;28;7261;-62
2023/02/22 08:29:10;;;;;;;;;;;;;;;25.55;37.84;93960.66;5052018;28;6927;-62
2023/02/22 08:31:49;;;;;;;;;;;;;;;25.56;36.90;93967.63;5038733;28;8590;-63
2023/02/22 08:34:35;;;;;;;;;;;;;;;25.57;37.54;93960.88;5037794;28;8705;-63
2023/02/22 08:37:06;;;;;;;;;;;;;;;25.57;37.75;93960.88;5037944;28;7033;-62
2023/02/22 08:39:52;;;;;;;;;;;;;;;25.57;37.33;93969.16;5038018;28;7655;-62
2023/02/22 08:42:33;;;;;;;;;;;;;;;25.58;37.23;93967.13;5055086;28;7260;-63
2023/02/22 08:45:02;;;;;;;;;;;;;;;25.56;37.23;93959.38;5052408;28;8730;-62
2023/02/22 08:48:20;;;;;;;;;;;;;;;25.59;37.09;93974.13;5034215;28;9044;-62
2023/02/22 08:50:57;;;;;;;;;;;;;;;25.59;37.42;93966.63;4949033;28;7267;-62
2023/02/22 08:53:34;;;;;;;;;;;;;;;25.59;37.90;93966.63;4967387;28;8931;-62
2023/02/22 08:56:11;;;;;;;;;;;;;;;25.60;37.53;93967.38;4965344;28;9070;-63
2023/02/22 08:58:46;;;;;;;;;;;;;;;25.60;37.81;93973.59;4974594;28;7141;-62
2023/02/22 09:01:25;;;;;;;;;;;;;;;25.59;37.92;93968.63;4958170;28;7469;-62
2023/02/22 09:04:17;;;;;;;;;;;;;;;25.59;38.07;93968.63;4963046;28;7277;-62
2023/02/22 09:07:27;;;;;;;;;;;;;;;25.58;37.50;93967.88;4961089;28;9116;-62
2023/02/22 09:09:54;;;;;;;;;;;;;;;25.58;37.54;93969.91;4966158;28;7294;-62
2023/02/22 09:12:22;;;;;;;;;;;;;;;25.57;37.47;93965.63;4971917;28;6982;-62
2023/02/22 09:14:48;;;;;;;;;;;;;;;25.56;37.90;93964.13;4951779;28;7220;-62
2023/02/22 09:17:14;;;;;;;;;;;;;;;25.57;37.31;93966.38;4963149;28;6989;-62
2023/02/22 09:19:40;;;;;;;;;;;;;;;25.57;38.02;93965.63;4960407;28;7145;-62
2023/02/22 09:22:06;;;;;;;;;;;;;;;25.61;38.22;93961.31;4966838;28;9204;-62
2023/02/22 09:24:37;;;;;;;;;;;;;;;25.61;37.16;93964.06;4960843;28;7431;-62
2023/02/22 09:27:03;;;;;;;;;;;;;;;25.60;37.67;93968.09;5035102;28;7037;-62
2023/02/22 09:29:51;;;;;;;;;;;;;;;25.62;38.22;93962.78;5036872;28;7208;-61
2023/02/22 09:32:28;;;;;;;;;;;;;;;25.65;37.15;93964.53;5036742;28;7270;-62
2023/02/22 09:35:00;;;;;;;;;;;;;;;25.64;37.33;93960.28;5054026;28;7191;-62
2023/02/22 09:37:31;;;;;;;;;;;;;;;25.67;37.96;93962.00;5036333;28;7249;-62
2023/02/22 09:40:10;;;;;;;;;;;;;;;25.69;38.01;93962.22;5028274;28;9374;-62
2023/02/22 09:42:55;;;;;;;;;;;;;;;25.70;37.86;93962.97;5036167;28;7256;-62
2023/02/22 09:45:46;;;;;;;;;;;;;;;25.70;37.16;93957.44;5051824;28;7049;-62
2023/02/22 09:48:52;;;;;;;;;;;;;;;25.70;37.77;93963.72;5030694;28;8795;-62
2023/02/22 09:51:21;;;;;;;;;;;;;;;25.73;36.95;93959.91;4989812;28;7039;-61
2023/02/22 09:54:05;;;;;;;;;;;;;;;25.76;37.89;93958.88;4990720;28;9798;-62
2023/02/22 09:56:45;;;;;;;;;;;;;;;25.75;37.88;93962.88;4976567;28;6973;-62
2023/02/22 09:59:26;;;;;;;;;;;;;;;25.72;37.84;93965.94;5000490;28;9427;-62
2023/02/22 10:02:21;;;;;;;;;;;;;;;25.69;37.61;93956.69;4979572;28;8675;-62
2023/02/22 10:05:04;;;;;;;;;;;;;;;25.67;37.76;93950.22;4918236;29;7125;-61
2023/02/22 10:07:50;;;;;;;;;;;;;;;25.68;37.94;93954.47;4915836;29;7064;-62
2023/02/22 10:10:34;;;;;;;;;;;;;;;25.67;38.16;93950.97;4915464;29;8742;-62
2023/02/22 10:13:13;;;;;;;;;;;;;;;25.67;37.32;93952.97;4927266;29;7234;-62
2023/02/22 10:15:45;;;;;;;;;;;;;;;25.65;38.09;93959.00;4916456;29;7600;-61
2023/02/22 10:18:41;;;;;;;;;;;;;;;25.70;37.50;93960.22;4918575;29;8938;-62
2023/02/22 10:22:03;;;;;;;;;;;;;;;25.70;38.25;93957.44;4918776;29;7266;-62
2023/02/22 10:25:04;;;;;;;;;;;;;;;25.69;37.35;93951.19;4877615;29;7018;-62
2023/02/22 10:28:04;;;;;;;;;;;;;;;25.73;38.25;93954.38;4894840;29;9121;-61
2023/02/22 10:30:55;;;;;;;;;;;;;;;25.74;38.19;93955.88;4896547;29;8598;-61
2023/02/22 10:34:08;;;;;;;;;;;;;;;25.76;37.86;93944.34;4906212;29;7075;-63
2023/02/22 10:36:58;;;;;;;;;;;;;;;25.78;37.41;93952.81;4895633;29;7301;-62
2023/02/22 10:40:05;;;;;;;;;;;;;;;25.77;37.54;93954.09;4896034;29;9132;-62
2023/02/22 10:42:31;;;;;;;;;;;;;;;25.82;37.71;93951.25;4942001;28;9106;-62
2023/02/22 10:45:18;;;;;;;;;;;;;;;25.82;38.23;93953.25;4956589;28;9317;-63
2023/02/22 10:48:07;;;;;;;;;;;;;;;25.80;37.55;93947.53;4972509;28;9052;-63
2023/02/22 10:50:39;;;;;;;;;;;;;;;25.80;37.49;93959.31;4972123;28;7050;-62
2023/02/22 10:53:14;;;;;;;;;;;;;;;25.80;37.96;93950.28;4971985;28;7357;-62
2023/02/22 10:56:27;;;;;;;;;;;;;;;25.80;37.89;93948.28;5022330;28;6725;-60
2023/02/22 11:03:05;;;;;;;;;;;;;;;25.83;37.90;93947.25;5018016;28;7252;-60
2023/02/22 11:05:44;;;;;;;;;;;;;;;25.82;38.04;93940.22;5018990;28;9031;-60
2023/02/22 11:08:27;;;;;;;;;;;;;;;25.83;37.44;93947.25;5005067;28;7271;-60
2023/02/22 11:11:27;;;;;;;;;;;;;;;25.84;38.19;93945.22;5015879;28;9040;-60
2023/02/22 11:14:33;;;;;;;;;;;;;;;25.87;37.28;93944.19;5019047;28;7278;-60
2023/02/22 11:17:22;;;;;;;;;;;;;;;25.89;37.32;93942.41;5028242;28;9753;-60
2023/02/22 11:19:50;;;;;;;;;;;;;;;25.89;37.34;93936.88;5009587;28;6994;-60
2023/02/22 11:22:40;;;;;;;;;;;;;;;25.88;38.00;93929.88;4982974;28;7559;-60
2023/02/22 11:25:21;;;;;;;;;;;;;;;25.88;37.55;93935.38;5003648;28;7268;-61
2023/02/22 11:28:08;;;;;;;;;;;;;;;25.89;37.89;93925.88;5001561;28;8735;-60
2023/02/22 11:31:30;;;;;;;;;;;;;;;25.89;38.03;93925.13;5016742;28;7245;-60
2023/02/22 11:34:35;;;;;;;;;;;;;;;25.89;37.41;93909.34;4942941;28;9091;-60
2023/02/22 11:37:48;;;;;;;;;;;;;;;25.91;38.13;93911.56;4931270;29;7023;-60
2023/02/22 11:40:21;;;;;;;;;;;;;;;25.89;37.57;93898.31;4958027;28;9062;-60
2023/02/22 11:43:26;;;;;;;;;;;;;;;25.92;38.25;93905.53;4950346;29;9000;-60
2023/02/22 11:46:29;;;;;;;;;;;;;;;25.90;37.30;93899.78;4935051;29;9022;-60
2023/02/22 11:49:33;;;;;;;;;;;;;;;25.94;37.97;93903.00;4936717;28;7063;-60
2023/02/22 11:52:38;;;;;;;;;;;;;;;25.97;37.87;93898.44;4944468;28;7031;-60
2023/02/22 11:55:48;;;;;;;;;;;;;;;25.98;37.66;93895.16;4934615;29;7204;-60
2023/02/22 11:58:32;;;;;;;;;;;;;;;25.99;37.81;93893.16;4905229;29;8725;-60
2023/02/22 12:01:25;;;;;;;;;;;;;;;26.00;37.30;93892.63;4904757;29;8738;-60
2023/02/22 12:07:28;;;;;;;;;;;;;;;26.02;37.81;93884.56;4905791;29;7418;-60
2023/02/22 12:10:21;;;;;;;;;;;;;;;26.04;37.71;93887.56;4936760;28;7127;-60
2023/02/22 12:13:31;;;;;;;;;;;;;;;26.01;38.28;93877.56;4936945;29;8801;-60
2023/02/22 12:16:14;;;;;;;;;;;;;;;26.03;37.63;93883.28;4927031;29;7290;-61
2023/02/22 12:18:54;;;;;;;;;;;;;;;26.05;38.34;93882.78;4920819;29;6860;-61
2023/02/22 12:21:41;;;;;;;;;;;;;;;26.06;38.24;93881.50;4923988;29;9172;-60
2023/02/22 12:24:46;;;;;;;;;;;;;;;26.04;37.87;93876.53;4912071;29;9589;-60
2023/02/22 12:27:32;;;;;;;;;;;;;;;26.03;38.25;93869.50;4925299;29;9207;-60
2023/02/22 12:30:34;;;;;;;;;;;;;;;26.08;38.41;93878.97;4919898;29;7323;-61
2023/02/22 12:33:32;;;;;;;;;;;;;;;26.06;38.45;93876.75;4913101;29;7511;-60
2023/02/22 12:36:00;;;;;;;;;;;;;;;26.08;38.01;93873.44;4957721;28;8780;-61
2023/02/22 12:39:12;;;;;;;;;;;;;;;26.08;38.55;93876.97;4979910;28;7061;-61
2023/02/22 12:42:11;;;;;;;;;;;;;;;26.11;38.53;93869.69;4989662;28;8136;-60
2023/02/22 12:44:43;;;;;;;;;;;;;;;26.10;38.00;93870.94;4977501;28;7291;-60
2023/02/22 12:47:21;;;;;;;;;;;;;;;26.12;37.98;93869.16;4984656;28;7039;-61
2023/02/22 12:50:28;;;;;;;;;;;;;;;26.13;38.49;93875.41;4976029;28;7030;-60
2023/02/22 12:53:13;;;;;;;;;;;;;;;26.14;37.85;93869.34;4919550;29;7335;-60
2023/02/22 12:56:27;;;;;;;;;;;;;;;26.16;38.57;93869.56;4919603;29;9135;-60
2023/02/22 12:59:35;;;;;;;;;;;;;;;26.17;38.55;93868.31;4935711;29;7478;-60
2023/02/22 13:02:32;;;;;;;;;;;;;;;26.20;37.90;93865.78;4931241;29;8955;-60
2023/02/22 13:05:16;;;;;;;;;;;;;;;26.22;37.96;93868.75;4878428;29;9790;-60
2023/02/22 13:08:27;;;;;;;;;;;;;;;26.25;38.51;93873.22;4883762;29;7116;-60
2023/02/22 13:11:30;;;;;;;;;;;;;;;26.27;38.65;93870.66;4875306;29;7207;-60
2023/02/22 13:14:23;;;;;;;;;;;;;;;26.27;38.36;93876.19;4857229;29;9158;-60
2023/02/22 13:17:26;;;;;;;;;;;;;;;26.28;38.68;93872.16;4870832;29;7226;-60
2023/02/22 13:20:37;;;;;;;;;;;;;;;26.31;38.64;93866.34;4886943;29;7926;-60
2023/02/22 13:23:34;;;;;;;;;;;;;;;26.32;37.91;93872.59;4878918;29;6866;-59
2023/02/22 13:26:44;;;;;;;;;;;;;;;26.35;38.32;93868.78;4891958;29;7279;-59
2023/02/22 13:29:19;;;;;;;;;;;;;;;26.35;37.96;93861.25;4951651;28;9182;-60
2023/02/22 13:32:36;;;;;;;;;;;;;;;26.36;38.36;93868.22;4935270;29;6985;-62
2023/02/22 13:35:24;;;;;;;;;;;;;;;26.37;38.55;93863.47;4968276;28;7274;-63
2023/02/22 13:38:38;;;;;;;;;;;;;;;26.39;38.55;93863.69;4970093;28;7276;-62
2023/02/22 13:41:30;;;;;;;;;;;;;;;26.41;38.14;93870.16;4951038;28;7449;-63
2023/02/22 13:43:56;;;;;;;;;;;;;;;26.43;37.71;93861.34;4965313;28;9065;-63
2023/02/22 13:46:25;;;;;;;;;;;;;;;26.43;37.67;93859.34;4969520;28;7544;-63
2023/02/22 13:52:20;;;;;;;;;;;;;;;26.44;38.41;93860.09;4972938;28;7083;-63
2023/02/22 13:55:09;;;;;;;;;;;;;;;26.44;37.74;93863.59;4956543;28;8962;-63
2023/02/22 13:57:48;;;;;;;;;;;;;;;26.43;38.03;93862.09;4969774;28;7001;-63
2023/02/22 14:00:14;;;;;;;;;;;;;;;26.43;38.30;93859.34;4969884;28;9048;-63
2023/02/22 14:02:59;;;;;;;;;;;;;;;26.48;38.01;93863.28;4969544;28;7648;-63
2023/02/22 14:05:56;;;;;;;;;;;;;;;26.50;37.94;93867.00;4970464;28;9300;-63
2023/02/22 14:08:36;;;;;;;;;;;;;;;26.52;38.67;93866.44;4972810;28;7044;-63
2023/02/22 14:11:13;;;;;;;;;;;;;;;26.54;38.38;93858.38;4987977;28;7007;-63
2023/02/22 14:13:56;;;;;;;;;;;;;;;26.55;38.32;93863.41;5007234;28;7048;-63
2023/02/22 14:17:04;;;;;;;;;;;;;;;26.57;37.81;93863.59;4985783;28;9173;-63
2023/02/22 14:19:30;;;;;;;;;;;;;;;26.57;38.08;93865.63;4995660;28;9367;-63
2023/02/22 14:22:35;;;;;;;;;;;;;;;26.57;38.00;93862.84;4994871;28;9048;-63
2023/02/22 14:25:44;;;;;;;;;;;;;;;26.56;37.54;93862.09;4997622;28;8029;-63
2023/02/22 14:29:01;;;;;;;;;;;;;;;26.57;37.67;93862.84;5011488;28;8713;-63
2023/02/22 14:32:02;;;;;;;;;;;;;;;26.58;37.59;93861.56;4953724;28;9038;-63
2023/02/22 14:38:00;;;;;;;;;;;;;;;26.61;38.19;93860.53;4899934;29;7162;-63
2023/02/22 14:40:44;;;;;;;;;;;;;;;26.59;37.86;93863.06;4902796;29;7033;-63
2023/02/22 14:43:18;;;;;;;;;;;;;;;26.61;37.73;93860.53;4872051;29;9108;-63
2023/02/22 14:46:09;;;;;;;;;;;;;;;26.64;37.84;93859.47;4882745;29;7312;-63
2023/02/22 14:48:41;;;;;;;;;;;;;;;26.63;37.85;93858.72;4881558;29;8807;-62
2023/02/22 14:51:27;;;;;;;;;;;;;;;26.66;37.74;93863.19;4874653;29;7433;-62
2023/02/22 14:54:07;;;;;;;;;;;;;;;26.68;37.66;93859.88;4868492;29;9193;-63
2023/02/22 14:56:43;;;;;;;;;;;;;;;26.68;37.52;93857.13;4876817;29;8238;-63